sensor_id;sensor_type;location;lat;lon;timestamp;pressure;altitude;pressure_sealevel;temperature
72278;BMP280;61204;49.980;8.358;2022-07-21T00:00:22;100821.97;;;20.34
72278;BMP280;61204;49.980;8.358;2022-07-21T00:02:54;100824.06;;;20.36
72278;BMP280;61204;49.980;8.358;2022-07-21T00:05:25;100830.34;;;20.36
72278;BMP280;61204;49.980;8.358;2022-07-21T00:07:52;100832.53;;;20.40
72278;BMP280;61204;49.980;8.358;2022-07-21T00:10:23;100845.97;;;20.45
72278;BMP280;61204;49.980;8.358;2022-07-21T00:12:52;100850.91;;;20.47
72278;BMP280;61204;49.980;8.358;2022-07-21T00:15:21;100843.91;;;20.46
72278;BMP280;61204;49.980;8.358;2022-07-21T00:17:50;100840.41;;;20.45
72278;BMP280;61204;49.980;8.358;2022-07-21T00:20:17;100839.63;;;20.43
72278;BMP280;61204;49.980;8.358;2022-07-21T00:22:44;100841.13;;;20.46
72278;BMP280;61204;49.980;8.358;2022-07-21T00:25:14;100843.78;;;20.42
72278;BMP280;61204;49.980;8.358;2022-07-21T00:27:42;100838.91;;;20.42
72278;BMP280;61204;49.980;8.358;2022-07-21T00:30:09;100848.19;;;20.49
72278;BMP280;61204;49.980;8.358;2022-07-21T00:32:36;100848.25;;;20.51
72278;BMP280;61204;49.980;8.358;2022-07-21T00:35:04;100850.25;;;20.48
72278;BMP280;61204;49.980;8.358;2022-07-21T00:37:32;100850.09;;;20.44
72278;BMP280;61204;49.980;8.358;2022-07-21T00:39:58;100853.50;;;20.41
72278;BMP280;61204;49.980;8.358;2022-07-21T00:42:26;100858.28;;;20.38
72278;BMP280;61204;49.980;8.358;2022-07-21T00:44:55;100854.56;;;20.32
72278;BMP280;61204;49.980;8.358;2022-07-21T00:47:23;100860.09;;;20.29
72278;BMP280;61204;49.980;8.358;2022-07-21T00:49:53;100846.78;;;20.28
72278;BMP280;61204;49.980;8.358;2022-07-21T00:52:23;100853.88;;;20.31
72278;BMP280;61204;49.980;8.358;2022-07-21T00:54:52;100838.44;;;20.28
72278;BMP280;61204;49.980;8.358;2022-07-21T00:57:19;100850.81;;;20.23
72278;BMP280;61204;49.980;8.358;2022-07-21T00:59:44;100845.25;;;20.23
72278;BMP280;61204;49.980;8.358;2022-07-21T01:02:13;100850.81;;;20.23
72278;BMP280;61204;49.980;8.358;2022-07-21T01:04:39;100851.44;;;20.21
72278;BMP280;61204;49.980;8.358;2022-07-21T01:07:05;100855.09;;;20.26
72278;BMP280;61204;49.980;8.358;2022-07-21T01:09:34;100859.28;;;20.27
72278;BMP280;61204;49.980;8.358;2022-07-21T01:12:01;100859.28;;;20.27
72278;BMP280;61204;49.980;8.358;2022-07-21T01:14:28;100856.97;;;20.19
72278;BMP280;61204;49.980;8.358;2022-07-21T01:16:54;100861.03;;;20.16
72278;BMP280;61204;49.980;8.358;2022-07-21T01:19:20;100865.75;;;20.12
72278;BMP280;61204;49.980;8.358;2022-07-21T01:21:48;100869.72;;;20.07
72278;BMP280;61204;49.980;8.358;2022-07-21T01:24:16;100868.31;;;20.06
72278;BMP280;61204;49.980;8.358;2022-07-21T01:26:47;100866.25;;;20.06
72278;BMP280;61204;49.980;8.358;2022-07-21T01:29:18;100871.94;;;20.10
72278;BMP280;61204;49.980;8.358;2022-07-21T01:31:45;100863.03;;;20.14
72278;BMP280;61204;49.980;8.358;2022-07-21T01:34:14;100868.66;;;20.16
72278;BMP280;61204;49.980;8.358;2022-07-21T01:36:40;100872.94;;;20.19
72278;BMP280;61204;49.980;8.358;2022-07-21T01:39:06;100868.94;;;20.24
72278;BMP280;61204;49.980;8.358;2022-07-21T01:41:51;100883.53;;;20.22
72278;BMP280;61204;49.980;8.358;2022-07-21T01:44:17;100883.69;;;20.28
72278;BMP280;61204;49.980;8.358;2022-07-21T01:46:48;100891.34;;;20.28
72278;BMP280;61204;49.980;8.358;2022-07-21T01:49:18;100884.06;;;20.39
72278;BMP280;61204;49.980;8.358;2022-07-21T01:51:45;100880.69;;;20.42
72278;BMP280;61204;49.980;8.358;2022-07-21T01:54:12;100886.47;;;20.48
72278;BMP280;61204;49.980;8.358;2022-07-21T01:56:40;100896.56;;;20.59
72278;BMP280;61204;49.980;8.358;2022-07-21T01:59:06;100886.41;;;20.46
72278;BMP280;61204;49.980;8.358;2022-07-21T02:01:32;100888.13;;;20.36
72278;BMP280;61204;49.980;8.358;2022-07-21T02:04:01;100897.88;;;20.15
72278;BMP280;61204;49.980;8.358;2022-07-21T02:06:32;100896.00;;;20.02
72278;BMP280;61204;49.980;8.358;2022-07-21T02:08:59;100906.56;;;19.85
72278;BMP280;61204;49.980;8.358;2022-07-21T02:11:25;100908.97;;;19.75
72278;BMP280;61204;49.980;8.358;2022-07-21T02:13:52;100904.66;;;19.70
72278;BMP280;61204;49.980;8.358;2022-07-21T02:16:23;100902.81;;;19.59
72278;BMP280;61204;49.980;8.358;2022-07-21T02:18:49;100900.31;;;19.47
72278;BMP280;61204;49.980;8.358;2022-07-21T02:21:15;100904.91;;;19.41
72278;BMP280;61204;49.980;8.358;2022-07-21T02:23:41;100900.50;;;19.33
72278;BMP280;61204;49.980;8.358;2022-07-21T02:26:07;100899.00;;;19.30
72278;BMP280;61204;49.980;8.358;2022-07-21T02:28:36;100901.69;;;19.28
72278;BMP280;61204;49.980;8.358;2022-07-21T02:31:02;100899.63;;;19.29
72278;BMP280;61204;49.980;8.358;2022-07-21T02:33:28;100907.09;;;19.24
72278;BMP280;61204;49.980;8.358;2022-07-21T02:35:54;100913.94;;;19.21
72278;BMP280;61204;49.980;8.358;2022-07-21T02:38:22;100926.00;;;19.28
72278;BMP280;61204;49.980;8.358;2022-07-21T02:40:48;100918.94;;;19.25
72278;BMP280;61204;49.980;8.358;2022-07-21T02:43:14;100921.59;;;19.23
72278;BMP280;61204;49.980;8.358;2022-07-21T02:45:39;100918.13;;;19.22
72278;BMP280;61204;49.980;8.358;2022-07-21T02:48:10;100929.91;;;19.21
72278;BMP280;61204;49.980;8.358;2022-07-21T02:50:40;100925.75;;;19.22
72278;BMP280;61204;49.980;8.358;2022-07-21T02:53:11;100928.44;;;19.20
72278;BMP280;61204;49.980;8.358;2022-07-21T02:55:40;100937.69;;;19.24
72278;BMP280;61204;49.980;8.358;2022-07-21T02:58:21;100934.63;;;19.36
72278;BMP280;61204;49.980;8.358;2022-07-21T03:00:59;100929.94;;;19.41
72278;BMP280;61204;49.980;8.358;2022-07-21T03:03:33;100930.50;;;19.37
72278;BMP280;61204;49.980;8.358;2022-07-21T03:06:02;100936.06;;;19.37
72278;BMP280;61204;49.980;8.358;2022-07-21T03:08:30;100931.94;;;19.38
72278;BMP280;61204;49.980;8.358;2022-07-21T03:10:56;100935.44;;;19.39
72278;BMP280;61204;49.980;8.358;2022-07-21T03:13:22;100941.78;;;19.41
72278;BMP280;61204;49.980;8.358;2022-07-21T03:15:48;100944.66;;;19.43
72278;BMP280;61204;49.980;8.358;2022-07-21T03:18:14;100944.25;;;19.51
72278;BMP280;61204;49.980;8.358;2022-07-21T03:20:48;100944.25;;;19.51
72278;BMP280;61204;49.980;8.358;2022-07-21T03:23:16;100946.31;;;19.50
72278;BMP280;61204;49.980;8.358;2022-07-21T03:25:42;100946.41;;;19.52
72278;BMP280;61204;49.980;8.358;2022-07-21T03:28:07;100958.38;;;19.57
72278;BMP280;61204;49.980;8.358;2022-07-21T03:30:34;100948.84;;;19.62
72278;BMP280;61204;49.980;8.358;2022-07-21T03:33:04;100960.34;;;19.72
72278;BMP280;61204;49.980;8.358;2022-07-21T03:35:30;100965.69;;;19.66
72278;BMP280;61204;49.980;8.358;2022-07-21T03:38:05;100956.69;;;19.67
72278;BMP280;61204;49.980;8.358;2022-07-21T03:40:40;100966.94;;;19.63
72278;BMP280;61204;49.980;8.358;2022-07-21T03:43:10;100976.13;;;19.48
72278;BMP280;61204;49.980;8.358;2022-07-21T03:45:39;100974.59;;;19.45
72278;BMP280;61204;49.980;8.358;2022-07-21T03:48:15;100977.63;;;19.51
72278;BMP280;61204;49.980;8.358;2022-07-21T03:50:51;100976.72;;;19.46
72278;BMP280;61204;49.980;8.358;2022-07-21T03:53:20;100979.22;;;19.38
72278;BMP280;61204;49.980;8.358;2022-07-21T03:55:46;100979.13;;;19.36
72278;BMP280;61204;49.980;8.358;2022-07-21T03:58:12;100981.75;;;19.32
72278;BMP280;61204;49.980;8.358;2022-07-21T04:00:45;100981.66;;;19.30
72278;BMP280;61204;49.980;8.358;2022-07-21T04:03:14;100977.66;;;19.35
72278;BMP280;61204;49.980;8.358;2022-07-21T04:05:45;100985.56;;;19.41
72278;BMP280;61204;49.980;8.358;2022-07-21T04:11:27;100981.13;;;19.33
72278;BMP280;61204;49.980;8.358;2022-07-21T04:13:54;100991.97;;;19.27
72278;BMP280;61204;49.980;8.358;2022-07-21T04:16:20;100987.00;;;19.24
72278;BMP280;61204;49.980;8.358;2022-07-21T04:18:46;100993.16;;;19.22
72278;BMP280;61204;49.980;8.358;2022-07-21T04:21:12;100987.44;;;19.18
72278;BMP280;61204;49.980;8.358;2022-07-21T04:23:38;100992.22;;;19.16
72278;BMP280;61204;49.980;8.358;2022-07-21T04:26:06;100986.75;;;19.18
72278;BMP280;61204;49.980;8.358;2022-07-21T04:28:40;100989.03;;;19.23
72278;BMP280;61204;49.980;8.358;2022-07-21T04:31:08;100986.69;;;19.33
72278;BMP280;61204;49.980;8.358;2022-07-21T04:33:41;100986.84;;;19.38
72278;BMP280;61204;49.980;8.358;2022-07-21T04:36:17;100988.66;;;19.49
72278;BMP280;61204;49.980;8.358;2022-07-21T04:38:49;100989.63;;;19.55
72278;BMP280;61204;49.980;8.358;2022-07-21T04:41:16;100991.53;;;19.51
72278;BMP280;61204;49.980;8.358;2022-07-21T04:43:47;100991.38;;;19.47
72278;BMP280;61204;49.980;8.358;2022-07-21T04:46:13;100995.59;;;19.48
72278;BMP280;61204;49.980;8.358;2022-07-21T04:48:38;100991.59;;;19.53
72278;BMP280;61204;49.980;8.358;2022-07-21T04:51:04;100989.63;;;19.55
72278;BMP280;61204;49.980;8.358;2022-07-21T04:53:30;101005.59;;;19.55
72278;BMP280;61204;49.980;8.358;2022-07-21T04:56:02;100997.47;;;19.61
72278;BMP280;61204;49.980;8.358;2022-07-21T04:58:34;100997.53;;;19.63
72278;BMP280;61204;49.980;8.358;2022-07-21T05:03:25;101004.69;;;19.68
72278;BMP280;61204;49.980;8.358;2022-07-21T05:05:51;101012.09;;;19.79
72278;BMP280;61204;49.980;8.358;2022-07-21T05:08:19;101004.06;;;20.07
72278;BMP280;61204;49.980;8.358;2022-07-21T05:10:44;101020.16;;;20.48
72278;BMP280;61204;49.980;8.358;2022-07-21T05:13:12;101014.34;;;20.62
72278;BMP280;61204;49.980;8.358;2022-07-21T05:15:37;101020.91;;;20.71
72278;BMP280;61204;49.980;8.358;2022-07-21T05:18:09;101023.06;;;20.72
72278;BMP280;61204;49.980;8.358;2022-07-21T05:20:40;101021.59;;;20.49
72278;BMP280;61204;49.980;8.358;2022-07-21T05:23:12;101023.22;;;20.37
72278;BMP280;61204;49.980;8.358;2022-07-21T05:25:40;101027.22;;;20.32
72278;BMP280;61204;49.980;8.358;2022-07-21T05:28:06;101018.31;;;20.35
72278;BMP280;61204;49.980;8.358;2022-07-21T05:30:32;101021.44;;;20.25
72278;BMP280;61204;49.980;8.358;2022-07-21T05:33:00;101012.50;;;20.09
72278;BMP280;61204;49.980;8.358;2022-07-21T05:35:27;101007.78;;;20.14
72278;BMP280;61204;49.980;8.358;2022-07-21T05:37:52;101016.84;;;20.14
72278;BMP280;61204;49.980;8.358;2022-07-21T05:40:18;101014.72;;;20.52
72278;BMP280;61204;49.980;8.358;2022-07-21T05:42:44;101023.00;;;20.90
72278;BMP280;61204;49.980;8.358;2022-07-21T05:45:15;101021.53;;;21.54
72278;BMP280;61204;49.980;8.358;2022-07-21T05:47:43;101019.06;;;22.14
72278;BMP280;61204;49.980;8.358;2022-07-21T05:50:09;101023.69;;;22.85
72278;BMP280;61204;49.980;8.358;2022-07-21T05:52:36;101031.19;;;23.69
72278;BMP280;61204;49.980;8.358;2022-07-21T05:55:02;101030.63;;;24.48
72278;BMP280;61204;49.980;8.358;2022-07-21T05:57:32;101030.16;;;24.64
72278;BMP280;61204;49.980;8.358;2022-07-21T05:59:58;101033.63;;;25.57
72278;BMP280;61204;49.980;8.358;2022-07-21T06:02:24;101038.97;;;25.97
72278;BMP280;61204;49.980;8.358;2022-07-21T06:04:51;101036.25;;;26.84
72278;BMP280;61204;49.980;8.358;2022-07-21T06:07:19;101036.91;;;25.39
72278;BMP280;61204;49.980;8.358;2022-07-21T06:09:44;101037.13;;;25.05
72278;BMP280;61204;49.980;8.358;2022-07-21T06:12:12;101036.28;;;24.55
72278;BMP280;61204;49.980;8.358;2022-07-21T06:14:38;101030.88;;;24.65
72278;BMP280;61204;49.980;8.358;2022-07-21T06:17:09;101031.84;;;24.01
72278;BMP280;61204;49.980;8.358;2022-07-21T06:19:34;101024.41;;;23.46
72278;BMP280;61204;49.980;8.358;2022-07-21T06:22:00;101023.81;;;23.52
72278;BMP280;61204;49.980;8.358;2022-07-21T06:24:27;101028.31;;;23.67
72278;BMP280;61204;49.980;8.358;2022-07-21T06:26:58;101035.78;;;24.24
72278;BMP280;61204;49.980;8.358;2022-07-21T06:29:24;101037.66;;;24.96
72278;BMP280;61204;49.980;8.358;2022-07-21T06:31:50;101036.84;;;25.35
72278;BMP280;61204;49.980;8.358;2022-07-21T06:34:16;101041.31;;;26.17
72278;BMP280;61204;49.980;8.358;2022-07-21T06:36:45;101041.41;;;26.25
72278;BMP280;61204;49.980;8.358;2022-07-21T06:39:10;101051.47;;;26.53
72278;BMP280;61204;49.980;8.358;2022-07-21T06:41:39;101055.56;;;26.37
72278;BMP280;61204;49.980;8.358;2022-07-21T06:44:06;101042.38;;;26.58
72278;BMP280;61204;49.980;8.358;2022-07-21T06:46:34;101057.44;;;26.95
72278;BMP280;61204;49.980;8.358;2022-07-21T06:49:02;101049.75;;;27.06
72278;BMP280;61204;49.980;8.358;2022-07-21T06:51:28;101055.00;;;27.76
72278;BMP280;61204;49.980;8.358;2022-07-21T06:53:56;101055.78;;;28.15
72278;BMP280;61204;49.980;8.358;2022-07-21T06:56:22;101061.41;;;28.68
72278;BMP280;61204;49.980;8.358;2022-07-21T06:58:48;101066.38;;;28.66
72278;BMP280;61204;49.980;8.358;2022-07-21T07:01:14;101071.25;;;29.04
72278;BMP280;61204;49.980;8.358;2022-07-21T07:03:42;101062.84;;;28.57
72278;BMP280;61204;49.980;8.358;2022-07-21T07:06:09;101062.06;;;27.98
72278;BMP280;61204;49.980;8.358;2022-07-21T07:08:39;101057.78;;;27.66
72278;BMP280;61204;49.980;8.358;2022-07-21T07:11:05;101060.88;;;26.88
72278;BMP280;61204;49.980;8.358;2022-07-21T07:13:31;101065.56;;;26.57
72278;BMP280;61204;49.980;8.358;2022-07-21T07:15:57;101067.13;;;26.76
72278;BMP280;61204;49.980;8.358;2022-07-21T07:18:23;101070.91;;;26.26
72278;BMP280;61204;49.980;8.358;2022-07-21T07:20:51;101079.34;;;26.26
72278;BMP280;61204;49.980;8.358;2022-07-21T07:23:17;101081.13;;;26.70
72278;BMP280;61204;49.980;8.358;2022-07-21T07:25:48;101080.84;;;27.28
72278;BMP280;61204;49.980;8.358;2022-07-21T07:28:15;101076.59;;;27.25
72278;BMP280;61204;49.980;8.358;2022-07-21T07:30:45;101077.50;;;26.57
72278;BMP280;61204;49.980;8.358;2022-07-21T07:33:16;101080.50;;;26.05
72278;BMP280;61204;49.980;8.358;2022-07-21T07:35:45;101084.56;;;25.90
72278;BMP280;61204;49.980;8.358;2022-07-21T07:38:16;101089.78;;;25.57
72278;BMP280;61204;49.980;8.358;2022-07-21T07:40:42;101078.81;;;25.25
72278;BMP280;61204;49.980;8.358;2022-07-21T07:43:08;101083.63;;;25.19
72278;BMP280;61204;49.980;8.358;2022-07-21T07:45:37;101088.47;;;25.16
72278;BMP280;61204;49.980;8.358;2022-07-21T07:48:04;101092.09;;;25.23
72278;BMP280;61204;49.980;8.358;2022-07-21T07:50:30;101082.69;;;26.85
72278;BMP280;61204;49.980;8.358;2022-07-21T07:52:56;101081.56;;;27.31
72278;BMP280;61204;49.980;8.358;2022-07-21T07:55:22;101077.66;;;28.70
72278;BMP280;61204;49.980;8.358;2022-07-21T07:57:47;101085.41;;;28.55
72278;BMP280;61204;49.980;8.358;2022-07-21T08:00:15;101086.06;;;27.99
72278;BMP280;61204;49.980;8.358;2022-07-21T08:02:44;101090.31;;;28.08
72278;BMP280;61204;49.980;8.358;2022-07-21T08:05:11;101086.03;;;29.06
72278;BMP280;61204;49.980;8.358;2022-07-21T08:07:39;101080.66;;;30.00
72278;BMP280;61204;49.980;8.358;2022-07-21T08:10:07;101086.56;;;29.61
72278;BMP280;61204;49.980;8.358;2022-07-21T08:12:37;101078.53;;;30.02
72278;BMP280;61204;49.980;8.358;2022-07-21T08:15:04;101080.28;;;29.43
72278;BMP280;61204;49.980;8.358;2022-07-21T08:17:31;101066.22;;;30.38
72278;BMP280;61204;49.980;8.358;2022-07-21T08:19:57;101080.84;;;30.65
72278;BMP280;61204;49.980;8.358;2022-07-21T08:22:22;101070.84;;;30.74
72278;BMP280;61204;49.980;8.358;2022-07-21T08:24:50;101074.50;;;29.67
72278;BMP280;61204;49.980;8.358;2022-07-21T08:27:16;101066.34;;;28.78
72278;BMP280;61204;49.980;8.358;2022-07-21T08:29:41;101064.25;;;28.54
72278;BMP280;61204;49.980;8.358;2022-07-21T08:32:07;101065.66;;;28.67
72278;BMP280;61204;49.980;8.358;2022-07-21T08:34:34;101069.91;;;28.54
72278;BMP280;61204;49.980;8.358;2022-07-21T08:37:02;101068.34;;;29.18
72278;BMP280;61204;49.980;8.358;2022-07-21T08:39:28;101066.91;;;30.43
72278;BMP280;61204;49.980;8.358;2022-07-21T08:41:53;101062.53;;;31.20
72278;BMP280;61204;49.980;8.358;2022-07-21T08:44:22;101061.28;;;32.48
72278;BMP280;61204;49.980;8.358;2022-07-21T08:46:51;101060.56;;;32.08
72278;BMP280;61204;49.980;8.358;2022-07-21T08:49:20;101060.97;;;31.82
72278;BMP280;61204;49.980;8.358;2022-07-21T08:51:49;101060.38;;;32.18
72278;BMP280;61204;49.980;8.358;2022-07-21T08:54:17;101063.50;;;32.41
72278;BMP280;61204;49.980;8.358;2022-07-21T08:56:46;101057.81;;;32.02
72278;BMP280;61204;49.980;8.358;2022-07-21T08:59:12;101044.72;;;32.95
72278;BMP280;61204;49.980;8.358;2022-07-21T09:01:40;101042.34;;;32.34
72278;BMP280;61204;49.980;8.358;2022-07-21T09:04:23;101039.81;;;31.75
72278;BMP280;61204;49.980;8.358;2022-07-21T09:06:52;101025.94;;;31.57
72278;BMP280;61204;49.980;8.358;2022-07-21T09:09:30;101042.78;;;29.60
72278;BMP280;61204;49.980;8.358;2022-07-21T09:12:02;101042.22;;;29.25
72278;BMP280;61204;49.980;8.358;2022-07-21T09:14:33;101044.53;;;28.36
72278;BMP280;61204;49.980;8.358;2022-07-21T09:17:01;101049.41;;;28.05
72278;BMP280;61204;49.980;8.358;2022-07-21T09:19:33;101046.53;;;27.68
72278;BMP280;61204;49.980;8.358;2022-07-21T09:22:06;101058.56;;;28.92
72278;BMP280;61204;49.980;8.358;2022-07-21T09:24:48;101049.09;;;30.55
72278;BMP280;61204;49.980;8.358;2022-07-21T09:27:23;101036.63;;;31.95
72278;BMP280;61204;49.980;8.358;2022-07-21T09:30:08;101029.31;;;31.67
72278;BMP280;61204;49.980;8.358;2022-07-21T09:32:38;101027.81;;;32.89
72278;BMP280;61204;49.980;8.358;2022-07-21T09:35:10;101028.63;;;33.17
72278;BMP280;61204;49.980;8.358;2022-07-21T09:37:41;101036.75;;;33.35
72278;BMP280;61204;49.980;8.358;2022-07-21T09:40:09;101032.19;;;33.17
72278;BMP280;61204;49.980;8.358;2022-07-21T09:42:49;101024.53;;;34.27
72278;BMP280;61204;49.980;8.358;2022-07-21T09:45:17;101026.38;;;34.86
72278;BMP280;61204;49.980;8.358;2022-07-21T09:47:46;101026.72;;;34.74
72278;BMP280;61204;49.980;8.358;2022-07-21T09:50:15;101033.13;;;32.73
72278;BMP280;61204;49.980;8.358;2022-07-21T09:52:43;101032.13;;;33.81
72278;BMP280;61204;49.980;8.358;2022-07-21T09:55:13;101038.91;;;33.94
72278;BMP280;61204;49.980;8.358;2022-07-21T09:57:44;101027.91;;;33.78
72278;BMP280;61204;49.980;8.358;2022-07-21T10:00:15;101036.00;;;33.96
72278;BMP280;61204;49.980;8.358;2022-07-21T10:02:47;101027.16;;;33.51
72278;BMP280;61204;49.980;8.358;2022-07-21T10:05:17;101035.66;;;33.82
72278;BMP280;61204;49.980;8.358;2022-07-21T10:07:47;101028.28;;;35.40
72278;BMP280;61204;49.980;8.358;2022-07-21T10:10:17;101019.38;;;35.29
72278;BMP280;61204;49.980;8.358;2022-07-21T10:12:47;101032.59;;;35.16
72278;BMP280;61204;49.980;8.358;2022-07-21T10:15:13;101032.25;;;34.04
72278;BMP280;61204;49.980;8.358;2022-07-21T10:17:44;101027.50;;;33.94
72278;BMP280;61204;49.980;8.358;2022-07-21T10:20:18;101016.53;;;33.18
72278;BMP280;61204;49.980;8.358;2022-07-21T10:25:52;101019.75;;;34.20
72278;BMP280;61204;49.980;8.358;2022-07-21T10:28:23;101015.66;;;35.55
72278;BMP280;61204;49.980;8.358;2022-07-21T10:30:54;101012.44;;;34.00
72278;BMP280;61204;49.980;8.358;2022-07-21T10:36:10;100998.81;;;32.50
72278;BMP280;61204;49.980;8.358;2022-07-21T10:41:43;101001.16;;;33.07
72278;BMP280;61204;49.980;8.358;2022-07-21T10:47:20;101004.81;;;34.44
72278;BMP280;61204;49.980;8.358;2022-07-21T10:50:01;101002.91;;;35.32
72278;BMP280;61204;49.980;8.358;2022-07-21T10:57:42;100998.75;;;34.81
72278;BMP280;61204;49.980;8.358;2022-07-21T11:00:24;101006.69;;;33.73
72278;BMP280;61204;49.980;8.358;2022-07-21T11:02:57;101008.19;;;33.41
72278;BMP280;61204;49.980;8.358;2022-07-21T11:05:32;100998.13;;;33.75
72278;BMP280;61204;49.980;8.358;2022-07-21T11:08:17;100993.00;;;34.83
72278;BMP280;61204;49.980;8.358;2022-07-21T11:10:52;100987.13;;;33.61
72278;BMP280;61204;49.980;8.358;2022-07-21T11:13:20;100955.47;;;33.75
72278;BMP280;61204;49.980;8.358;2022-07-21T11:18:20;100975.78;;;33.59
72278;BMP280;61204;49.980;8.358;2022-07-21T11:21:08;100986.25;;;34.95
72278;BMP280;61204;49.980;8.358;2022-07-21T11:23:49;100979.03;;;34.50
72278;BMP280;61204;49.980;8.358;2022-07-21T11:26:17;100972.56;;;34.51
72278;BMP280;61204;49.980;8.358;2022-07-21T11:29:03;100982.19;;;34.63
72278;BMP280;61204;49.980;8.358;2022-07-21T11:31:32;100971.41;;;34.67
72278;BMP280;61204;49.980;8.358;2022-07-21T11:34:14;100974.13;;;34.22
72278;BMP280;61204;49.980;8.358;2022-07-21T11:36:40;100968.81;;;34.82
72278;BMP280;61204;49.980;8.358;2022-07-21T11:39:10;100973.81;;;34.81
72278;BMP280;61204;49.980;8.358;2022-07-21T11:41:40;100966.34;;;35.15
72278;BMP280;61204;49.980;8.358;2022-07-21T11:44:10;100957.97;;;36.69
72278;BMP280;61204;49.980;8.358;2022-07-21T11:49:26;100961.38;;;33.94
72278;BMP280;61204;49.980;8.358;2022-07-21T11:52:14;100952.50;;;33.81
72278;BMP280;61204;49.980;8.358;2022-07-21T11:57:11;100958.66;;;35.33
72278;BMP280;61204;49.980;8.358;2022-07-21T11:59:39;100960.78;;;35.55
72278;BMP280;61204;49.980;8.358;2022-07-21T12:10:22;100949.47;;;34.64
72278;BMP280;61204;49.980;8.358;2022-07-21T12:12:58;100955.47;;;35.22
72278;BMP280;61204;49.980;8.358;2022-07-21T12:15:31;100948.28;;;35.23
72278;BMP280;61204;49.980;8.358;2022-07-21T12:20:34;100949.69;;;35.86
72278;BMP280;61204;49.980;8.358;2022-07-21T12:23:24;100948.53;;;36.56
72278;BMP280;61204;49.980;8.358;2022-07-21T12:25:59;100945.91;;;35.73
72278;BMP280;61204;49.980;8.358;2022-07-21T12:28:47;100945.91;;;35.73
72278;BMP280;61204;49.980;8.358;2022-07-21T12:31:18;100934.47;;;35.52
72278;BMP280;61204;49.980;8.358;2022-07-21T12:33:46;100945.53;;;34.53
72278;BMP280;61204;49.980;8.358;2022-07-21T12:36:13;100939.31;;;33.67
72278;BMP280;61204;49.980;8.358;2022-07-21T12:38:44;100946.47;;;33.93
72278;BMP280;61204;49.980;8.358;2022-07-21T12:41:13;100942.13;;;34.21
72278;BMP280;61204;49.980;8.358;2022-07-21T12:43:42;100931.28;;;34.98
72278;BMP280;61204;49.980;8.358;2022-07-21T12:46:32;100919.38;;;35.14
72278;BMP280;61204;49.980;8.358;2022-07-21T12:49:05;100914.41;;;34.92
72278;BMP280;61204;49.980;8.358;2022-07-21T12:51:34;100929.28;;;34.72
72278;BMP280;61204;49.980;8.358;2022-07-21T12:54:03;100927.47;;;34.60
72278;BMP280;61204;49.980;8.358;2022-07-21T12:56:33;100928.13;;;34.85
72278;BMP280;61204;49.980;8.358;2022-07-21T12:59:03;100922.94;;;34.69
72278;BMP280;61204;49.980;8.358;2022-07-21T13:01:32;100928.25;;;35.04
72278;BMP280;61204;49.980;8.358;2022-07-21T13:03:59;100933.00;;;36.14
72278;BMP280;61204;49.980;8.358;2022-07-21T13:06:27;100924.56;;;36.66
72278;BMP280;61204;49.980;8.358;2022-07-21T13:08:53;100923.84;;;36.11
72278;BMP280;61204;49.980;8.358;2022-07-21T13:11:21;100928.63;;;35.56
72278;BMP280;61204;49.980;8.358;2022-07-21T13:13:50;100927.94;;;35.14
72278;BMP280;61204;49.980;8.358;2022-07-21T13:16:22;100922.63;;;35.02
72278;BMP280;61204;49.980;8.358;2022-07-21T13:18:51;100935.66;;;33.98
72278;BMP280;61204;49.980;8.358;2022-07-21T13:21:16;100931.16;;;34.07
72278;BMP280;61204;49.980;8.358;2022-07-21T13:23:44;100934.63;;;33.85
72278;BMP280;61204;49.980;8.358;2022-07-21T13:26:10;100937.44;;;33.29
72278;BMP280;61204;49.980;8.358;2022-07-21T13:28:35;100925.44;;;33.26
72278;BMP280;61204;49.980;8.358;2022-07-21T13:31:01;100924.97;;;33.16
72278;BMP280;61204;49.980;8.358;2022-07-21T13:33:28;100926.63;;;32.74
72278;BMP280;61204;49.980;8.358;2022-07-21T13:35:55;100926.28;;;33.21
72278;BMP280;61204;49.980;8.358;2022-07-21T13:38:21;100922.59;;;33.26
72278;BMP280;61204;49.980;8.358;2022-07-21T13:40:47;100915.34;;;33.60
72278;BMP280;61204;49.980;8.358;2022-07-21T13:43:12;100929.31;;;33.42
72278;BMP280;61204;49.980;8.358;2022-07-21T13:45:40;100917.16;;;33.72
72278;BMP280;61204;49.980;8.358;2022-07-21T13:48:05;100915.44;;;33.83
72278;BMP280;61204;49.980;8.358;2022-07-21T13:50:33;100914.75;;;33.27
72278;BMP280;61204;49.980;8.358;2022-07-21T13:52:59;100908.13;;;33.36
72278;BMP280;61204;49.980;8.358;2022-07-21T13:55:26;100911.56;;;32.81
72278;BMP280;61204;49.980;8.358;2022-07-21T13:57:52;100906.81;;;32.02
72278;BMP280;61204;49.980;8.358;2022-07-21T14:00:18;100907.44;;;31.65
72278;BMP280;61204;49.980;8.358;2022-07-21T14:02:46;100920.53;;;31.44
72278;BMP280;61204;49.980;8.358;2022-07-21T14:05:14;100903.97;;;31.16
72278;BMP280;61204;49.980;8.358;2022-07-21T14:07:40;100919.84;;;30.96
72278;BMP280;61204;49.980;8.358;2022-07-21T14:10:06;100905.78;;;30.88
72278;BMP280;61204;49.980;8.358;2022-07-21T14:12:32;100904.38;;;30.89
72278;BMP280;61204;49.980;8.358;2022-07-21T14:15:01;100901.78;;;31.20
72278;BMP280;61204;49.980;8.358;2022-07-21T14:17:28;100904.75;;;31.57
72278;BMP280;61204;49.980;8.358;2022-07-21T14:19:53;100901.25;;;31.09
72278;BMP280;61204;49.980;8.358;2022-07-21T14:22:20;100889.75;;;31.65
72278;BMP280;61204;49.980;8.358;2022-07-21T14:24:56;100893.97;;;31.66
72278;BMP280;61204;49.980;8.358;2022-07-21T14:27:47;100889.78;;;31.18
72278;BMP280;61204;49.980;8.358;2022-07-21T14:30:19;100888.63;;;31.00
72278;BMP280;61204;49.980;8.358;2022-07-21T14:32:46;100887.00;;;31.13
72278;BMP280;61204;49.980;8.358;2022-07-21T14:35:13;100892.97;;;31.42
72278;BMP280;61204;49.980;8.358;2022-07-21T14:37:42;100892.56;;;31.24
72278;BMP280;61204;49.980;8.358;2022-07-21T14:40:09;100896.63;;;30.86
72278;BMP280;61204;49.980;8.358;2022-07-21T14:42:39;100895.38;;;30.72
72278;BMP280;61204;49.980;8.358;2022-07-21T14:45:06;100897.97;;;30.35
72278;BMP280;61204;49.980;8.358;2022-07-21T14:47:35;100884.03;;;30.74